createdAt,value
2019-02-07T00:02:16.055Z,-0.13
2019-02-07T00:04:47.730Z,-0.17
2019-02-07T00:07:19.296Z,-0.15
2019-02-07T00:09:50.999Z,-0.14
2019-02-07T00:12:22.650Z,-0.13
2019-02-07T00:14:54.289Z,-0.18
2019-02-07T00:17:25.840Z,-0.12
2019-02-07T00:19:57.645Z,-0.19
2019-02-07T00:22:29.213Z,-0.22
2019-02-07T00:25:01.010Z,-0.19
2019-02-07T00:27:32.917Z,-0.21
2019-02-07T00:30:05.249Z,-0.20
2019-02-07T00:32:36.822Z,-0.30
2019-02-07T00:35:09.250Z,-0.23
2019-02-07T00:37:40.802Z,-0.30
2019-02-07T00:40:14.617Z,-0.32
2019-02-07T00:42:46.845Z,-0.25
2019-02-07T00:45:18.426Z,-0.33
2019-02-07T00:47:50.251Z,-0.31
2019-02-07T00:50:21.938Z,-0.30
2019-02-07T00:52:53.438Z,-0.31
2019-02-07T00:55:25.870Z,-0.31
2019-02-07T00:57:57.612Z,-0.31
2019-02-07T01:00:29.275Z,-0.32
2019-02-07T01:03:00.776Z,-0.30
2019-02-07T01:05:32.466Z,-0.33
2019-02-07T01:08:04.650Z,-0.33
2019-02-07T01:10:53.943Z,-0.42
2019-02-07T01:13:43.408Z,-0.41
2019-02-07T01:16:14.930Z,-0.40
2019-02-07T01:18:46.570Z,-0.41
2019-02-07T01:21:18.269Z,-0.40
2019-02-07T01:23:49.749Z,-0.42
2019-02-07T01:26:21.788Z,-0.43
2019-02-07T01:28:53.548Z,-0.45
2019-02-07T01:31:25.322Z,-0.50
2019-02-07T01:33:56.864Z,-0.52
2019-02-07T01:36:28.617Z,-0.50
2019-02-07T01:39:00.121Z,-0.52
2019-02-07T01:41:31.837Z,-0.53
2019-02-07T01:44:03.387Z,-0.59
2019-02-07T01:46:34.854Z,-0.60
2019-02-07T01:49:06.360Z,-0.65
2019-02-07T01:51:38.132Z,-0.67
2019-02-07T01:54:09.590Z,-0.70
2019-02-07T01:56:41.115Z,-0.71
2019-02-07T01:59:12.814Z,-0.73
2019-02-07T02:01:44.398Z,-0.81
2019-02-07T02:04:15.873Z,-0.82
2019-02-07T02:06:47.674Z,-0.84
2019-02-07T02:09:19.207Z,-0.89
2019-02-07T02:11:50.783Z,-0.90
2019-02-07T02:14:24.308Z,-0.97
2019-02-07T02:16:55.901Z,-0.97
2019-02-07T02:19:27.469Z,-0.97
2019-02-07T02:21:59.101Z,-0.98
2019-02-07T02:24:30.600Z,-1.01
2019-02-07T02:27:02.158Z,-1.00
2019-02-07T02:29:33.991Z,-0.99
2019-02-07T02:32:05.778Z,-1.02
2019-02-07T02:34:37.290Z,-0.98
2019-02-07T02:37:08.984Z,-0.98
2019-02-07T02:39:40.735Z,-1.01
2019-02-07T02:42:12.443Z,-0.99
2019-02-07T02:44:43.932Z,-1.06
2019-02-07T02:47:15.613Z,-1.04
2019-02-07T02:49:47.190Z,-1.07
2019-02-07T02:52:18.733Z,-1.06
2019-02-07T02:54:53.433Z,-1.09
2019-02-07T02:57:27.843Z,-1.11
2019-02-07T02:59:59.653Z,-1.10
2019-02-07T03:02:51.560Z,-1.11
2019-02-07T03:05:45.070Z,-1.07
2019-02-07T03:08:34.197Z,-1.16
2019-02-07T03:11:23.921Z,-1.16
2019-02-07T03:14:13.449Z,-1.21
2019-02-07T03:17:22.884Z,-1.21
2019-02-07T03:20:13.388Z,-1.25
2019-02-07T03:23:22.086Z,-1.24
2019-02-07T03:26:12.724Z,-1.25
2019-02-07T03:29:01.880Z,-1.28
2019-02-07T03:31:51.265Z,-1.30
2019-02-07T03:34:40.716Z,-1.26
2019-02-07T03:37:22.193Z,-1.24
2019-02-07T03:40:27.863Z,-1.21
2019-02-07T03:43:18.371Z,-1.19
2019-02-07T03:46:11.971Z,-1.18
2019-02-07T03:48:59.586Z,-1.19
2019-02-07T03:51:48.713Z,-1.16
2019-02-07T03:54:37.678Z,-1.18
2019-02-07T03:57:40.407Z,-1.16
2019-02-07T04:00:38.462Z,-1.18
2019-02-07T04:03:39.859Z,-1.18
2019-02-07T04:06:39.499Z,-1.21
2019-02-07T04:09:35.853Z,-1.20
2019-02-07T04:12:29.733Z,-1.21
2019-02-07T04:15:18.970Z,-1.22
2019-02-07T04:18:17.117Z,-1.21
2019-02-07T04:21:07.445Z,-1.20
2019-02-07T04:23:48.481Z,-1.19
2019-02-07T04:26:47.929Z,-1.17
2019-02-07T04:29:44.719Z,-1.16
2019-02-07T04:32:38.100Z,-1.09
2019-02-07T04:35:37.669Z,-1.16
2019-02-07T04:38:38.045Z,-1.22
2019-02-07T04:41:31.492Z,-1.13
2019-02-07T04:44:20.449Z,-1.11
2019-02-07T04:47:09.735Z,-1.10
2019-02-07T04:50:06.031Z,-1.03
2019-02-07T04:53:05.273Z,-1.01
2019-02-07T04:55:56.143Z,-1.05
2019-02-07T04:58:36.990Z,-1.01
2019-02-07T05:01:27.959Z,-0.98
2019-02-07T05:04:27.664Z,-0.95
2019-02-07T05:07:05.945Z,-0.93
2019-02-07T05:09:59.145Z,-0.94
2019-02-07T05:12:48.387Z,-0.86
2019-02-07T05:15:39.026Z,-0.88
2019-02-07T05:18:27.948Z,-0.87
2019-02-07T05:21:18.570Z,-0.88
2019-02-07T05:24:26.966Z,-0.85
2019-02-07T05:27:20.662Z,-0.84
2019-02-07T05:30:10.519Z,-0.79
2019-02-07T05:32:58.239Z,-0.83
2019-02-07T05:35:58.088Z,-0.77
2019-02-07T05:38:48.665Z,-0.70
2019-02-07T05:41:33.826Z,-0.73
2019-02-07T05:44:14.651Z,-0.72
2019-02-07T05:47:03.549Z,-0.77
2019-02-07T05:50:09.401Z,-0.75
2019-02-07T05:52:52.622Z,-0.71
2019-02-07T05:55:42.266Z,-0.69
2019-02-07T05:58:38.356Z,-0.70
2019-02-07T06:01:17.645Z,-0.63
2019-02-07T06:04:01.414Z,-0.70
2019-02-07T06:06:55.033Z,-0.68
2019-02-07T06:09:49.067Z,-0.69
2019-02-07T06:12:38.390Z,-0.73
2019-02-07T06:15:37.604Z,-0.72
2019-02-07T06:18:24.498Z,-0.70
2019-02-07T06:21:15.154Z,-0.77
2019-02-07T06:24:11.644Z,-0.75
2019-02-07T06:26:54.319Z,-0.66
2019-02-07T06:29:43.636Z,-0.59
2019-02-07T06:32:36.845Z,-0.64
2019-02-07T06:35:33.282Z,-0.64
2019-02-07T06:38:15.712Z,-0.58
2019-02-07T06:41:05.026Z,-0.54
2019-02-07T06:43:54.223Z,-0.46
2019-02-07T06:46:38.223Z,-0.38
2019-02-07T06:49:35.129Z,-0.30
2019-02-07T06:52:31.526Z,-0.27
2019-02-07T06:55:20.367Z,-0.18
2019-02-07T06:58:11.211Z,-0.11
2019-02-07T07:01:13.983Z,-0.01
2019-02-07T07:04:04.669Z,0.06
2019-02-07T07:06:53.981Z,0.12
2019-02-07T07:09:43.220Z,0.22
2019-02-07T07:12:33.531Z,0.30
2019-02-07T07:15:15.503Z,0.35
2019-02-07T07:18:06.434Z,0.45
2019-02-07T07:20:51.739Z,0.53
2019-02-07T07:25:59.922Z,0.76
2019-02-07T07:28:59.501Z,0.88
2019-02-07T07:32:05.599Z,0.94
2019-02-07T07:35:05.123Z,1.19
2019-02-07T07:37:55.543Z,1.33
2019-02-07T07:41:04.094Z,1.42
2019-02-07T07:43:57.616Z,1.65
2019-02-07T07:46:47.933Z,1.78
2019-02-07T07:49:32.142Z,2.01
2019-02-07T07:52:25.463Z,2.14
2019-02-07T07:55:28.389Z,2.30
2019-02-07T07:58:21.729Z,2.46
2019-02-07T08:01:18.086Z,2.55
2019-02-07T08:04:08.546Z,2.76
2019-02-07T08:07:11.057Z,2.91
2019-02-07T08:10:04.344Z,3.08
2019-02-07T08:12:59.795Z,3.24
2019-02-07T08:15:49.021Z,3.31
2019-02-07T08:18:48.469Z,3.42
2019-02-07T08:21:37.629Z,3.55
2019-02-07T08:24:24.773Z,3.60
2019-02-07T08:27:21.330Z,3.67
2019-02-07T08:30:10.661Z,3.79
2019-02-07T08:33:07.024Z,3.87
2019-02-07T08:36:06.564Z,3.95
2019-02-07T08:38:55.463Z,4.09
2019-02-07T08:41:36.567Z,4.31
2019-02-07T08:44:39.105Z,4.46
2019-02-07T08:47:20.508Z,4.56
2019-02-07T08:50:29.425Z,4.63
2019-02-07T08:53:31.822Z,4.65
2019-02-07T08:56:14.757Z,4.44
2019-02-07T08:59:03.844Z,4.61
2019-02-07T09:01:44.191Z,4.54
2019-02-07T09:04:34.514Z,4.70
2019-02-07T09:07:15.974Z,4.79
2019-02-07T09:10:04.776Z,4.97
2019-02-07T09:12:55.248Z,5.03
2019-02-07T09:15:49.230Z,5.19
2019-02-07T09:18:38.568Z,5.40
2019-02-07T09:21:27.935Z,5.20
2019-02-07T09:24:16.864Z,5.43
2019-02-07T09:27:02.702Z,5.57
2019-02-07T09:29:59.370Z,5.72
2019-02-07T09:32:49.628Z,5.84
2019-02-07T09:35:39.447Z,5.92
2019-02-07T09:38:36.544Z,6.06
2019-02-07T09:41:36.879Z,6.15
2019-02-07T09:44:26.096Z,6.17
2019-02-07T09:47:20.814Z,6.16
2019-02-07T09:50:18.109Z,6.27
2019-02-07T09:53:23.418Z,6.39
2019-02-07T09:55:57.600Z,6.41
2019-02-07T09:58:47.713Z,6.59
2019-02-07T10:01:26.791Z,6.58
2019-02-07T10:04:17.120Z,6.64
2019-02-07T10:07:16.332Z,6.68
2019-02-07T10:10:16.166Z,6.65
2019-02-07T10:13:06.597Z,6.57
2019-02-07T10:15:54.783Z,6.53
2019-02-07T10:18:43.783Z,6.48
2019-02-07T10:21:24.126Z,6.51
2019-02-07T10:24:23.816Z,6.43
2019-02-07T10:27:23.335Z,6.51
2019-02-07T10:30:25.814Z,6.56
2019-02-07T10:33:15.294Z,6.45
2019-02-07T10:36:08.854Z,6.53
2019-02-07T10:39:05.075Z,6.62
2019-02-07T10:41:55.463Z,6.62
2019-02-07T10:44:44.702Z,6.57
2019-02-07T10:47:33.603Z,6.73
2019-02-07T10:50:37.430Z,6.89
2019-02-07T10:53:33.570Z,6.99
2019-02-07T10:56:15.853Z,7.11
2019-02-07T10:59:06.272Z,6.96
2019-02-07T11:01:55.934Z,7.19
2019-02-07T11:04:46.283Z,7.35
2019-02-07T11:07:36.698Z,7.41
2019-02-07T11:10:29.099Z,7.43
2019-02-07T11:13:19.992Z,7.57
2019-02-07T11:16:09.368Z,7.55
2019-02-07T11:19:00.387Z,7.60
2019-02-07T11:21:53.616Z,7.65
2019-02-07T11:24:48.042Z,7.82
2019-02-07T11:27:37.068Z,7.95
2019-02-07T11:30:31.574Z,7.88
2019-02-07T11:33:33.909Z,7.93
2019-02-07T11:36:35.296Z,7.99
2019-02-07T11:39:29.788Z,8.02
2019-02-07T11:42:38.844Z,8.14
2019-02-07T11:45:31.004Z,8.29
2019-02-07T11:48:15.849Z,8.34
2019-02-07T11:50:55.905Z,8.59
2019-02-07T11:53:45.472Z,8.50
2019-02-07T11:56:25.952Z,8.56
2019-02-07T11:59:19.401Z,8.87
2019-02-07T12:02:09.783Z,8.70
2019-02-07T12:05:00.990Z,8.73
2019-02-07T12:08:07.386Z,8.68
2019-02-07T12:11:04.115Z,8.77
2019-02-07T12:13:54.540Z,8.65
2019-02-07T12:16:43.982Z,8.71
2019-02-07T12:19:31.547Z,8.81
2019-02-07T12:22:37.335Z,8.97
2019-02-07T12:25:26.763Z,9.11
2019-02-07T12:28:17.461Z,9.18
2019-02-07T12:31:19.867Z,9.13
2019-02-07T12:34:07.163Z,9.25
2019-02-07T12:37:05.495Z,9.15
2019-02-07T12:39:59.205Z,9.31
2019-02-07T12:42:48.157Z,9.14
2019-02-07T12:45:51.056Z,9.06
2019-02-07T12:48:40.172Z,8.99
2019-02-07T12:51:30.613Z,9.15
2019-02-07T12:54:19.547Z,9.29
2019-02-07T12:57:09.058Z,9.35
2019-02-07T13:00:05.573Z,9.55
2019-02-07T13:02:46.215Z,9.76
2019-02-07T13:05:36.256Z,10.11
2019-02-07T13:08:26.795Z,10.49
2019-02-07T13:11:15.760Z,11.36
2019-02-07T13:14:15.233Z,11.65
2019-02-07T13:17:14.779Z,11.20
2019-02-07T13:19:55.735Z,10.72
2019-02-07T13:22:47.086Z,10.53
2019-02-07T13:25:36.340Z,10.72
2019-02-07T13:28:25.505Z,11.05
2019-02-07T13:31:20.919Z,11.47
2019-02-07T13:34:21.369Z,11.96
2019-02-07T13:37:08.764Z,12.75
2019-02-07T13:40:10.325Z,13.39
2019-02-07T13:43:12.642Z,13.45
2019-02-07T13:45:55.355Z,13.31
2019-02-07T13:48:58.069Z,13.17
2019-02-07T13:52:00.192Z,12.81
2019-02-07T13:54:49.413Z,12.75
2019-02-07T13:57:49.453Z,12.79
2019-02-07T14:00:45.029Z,12.49
2019-02-07T14:03:28.580Z,12.37
2019-02-07T14:06:13.286Z,12.33
2019-02-07T14:09:15.686Z,12.19
2019-02-07T14:12:18.647Z,11.94
2019-02-07T14:15:06.977Z,12.24
2019-02-07T14:17:58.211Z,12.98
2019-02-07T14:20:48.674Z,14.01
2019-02-07T14:23:37.909Z,14.08
2019-02-07T14:26:32.662Z,14.14
2019-02-07T14:29:21.888Z,13.72
2019-02-07T14:32:12.819Z,13.57
2019-02-07T14:35:00.976Z,13.96
2019-02-07T14:38:04.046Z,15.02
2019-02-07T14:40:57.405Z,15.74
2019-02-07T14:43:41.670Z,15.65
2019-02-07T14:46:32.528Z,14.99
2019-02-07T14:49:04.280Z,13.62
2019-02-07T14:51:35.753Z,12.43
2019-02-07T14:54:07.344Z,11.52
2019-02-07T14:56:38.936Z,10.93
2019-02-07T14:59:10.533Z,10.44
2019-02-07T15:01:42.070Z,10.04
2019-02-07T15:04:13.691Z,9.70
2019-02-07T15:06:45.161Z,9.21
2019-02-07T15:09:20.074Z,8.85
2019-02-07T15:11:51.885Z,8.48
2019-02-07T15:14:23.644Z,8.14
2019-02-07T15:16:55.142Z,7.84
2019-02-07T15:19:26.883Z,7.66
2019-02-07T15:21:58.403Z,7.41
2019-02-07T15:24:30.200Z,7.22
2019-02-07T15:27:01.837Z,7.02
2019-02-07T15:29:33.721Z,6.79
2019-02-07T15:32:05.530Z,6.41
2019-02-07T15:34:37.077Z,6.26
2019-02-07T15:37:08.559Z,6.14
2019-02-07T15:39:40.329Z,5.96
2019-02-07T15:42:12.363Z,5.84
2019-02-07T15:44:44.134Z,5.67
2019-02-07T15:47:15.666Z,5.65
2019-02-07T15:49:48.244Z,5.53
2019-02-07T15:52:19.754Z,5.41
2019-02-07T15:54:51.308Z,5.36
2019-02-07T15:57:23.162Z,5.22
2019-02-07T15:59:58.113Z,5.15
2019-02-07T16:02:39.306Z,5.09
2019-02-07T16:05:13.474Z,5.00
2019-02-07T16:07:45.090Z,4.99
2019-02-07T16:10:18.176Z,4.87
2019-02-07T16:12:50.140Z,4.78
2019-02-07T16:15:21.794Z,4.72
2019-02-07T16:17:53.504Z,4.69
2019-02-07T16:20:25.477Z,4.56
2019-02-07T16:22:58.980Z,4.48
2019-02-07T16:25:30.765Z,4.44
2019-02-07T16:28:02.555Z,4.37
2019-02-07T16:30:34.584Z,4.31
2019-02-07T16:33:06.617Z,4.25
2019-02-07T16:35:38.405Z,4.12
2019-02-07T16:38:09.993Z,4.18
2019-02-07T16:40:41.785Z,4.10
2019-02-07T16:43:13.847Z,4.10
2019-02-07T16:45:46.052Z,4.12
2019-02-07T16:48:17.661Z,4.05
2019-02-07T16:50:59.673Z,4.00
2019-02-07T16:53:22.717Z,3.95
2019-02-07T16:55:54.414Z,3.90
2019-02-07T16:58:26.584Z,3.92
2019-02-07T17:00:58.544Z,3.91
2019-02-07T17:03:30.201Z,3.85
2019-02-07T17:06:01.959Z,3.79
2019-02-07T17:08:33.518Z,3.68
2019-02-07T17:11:05.491Z,3.68
2019-02-07T17:13:36.997Z,3.62
2019-02-07T17:16:08.810Z,3.64
2019-02-07T17:18:40.365Z,3.58
2019-02-07T17:21:12.914Z,3.53
2019-02-07T17:23:44.755Z,3.55
2019-02-07T17:26:16.520Z,3.55
2019-02-07T17:28:48.626Z,3.51
2019-02-07T17:31:20.442Z,3.43
2019-02-07T17:33:51.941Z,3.44
2019-02-07T17:36:23.638Z,3.48
2019-02-07T17:38:55.332Z,3.39
2019-02-07T17:41:27.165Z,3.41
2019-02-07T17:43:59.386Z,3.41
2019-02-07T17:46:31.277Z,3.35
2019-02-07T17:49:03.375Z,3.25
2019-02-07T17:51:35.063Z,3.25
2019-02-07T17:54:06.756Z,3.27
2019-02-07T17:56:38.515Z,3.26
2019-02-07T17:59:10.095Z,3.24
2019-02-07T18:01:42.173Z,3.25
2019-02-07T18:04:13.929Z,3.24
2019-02-07T18:06:45.838Z,3.15
2019-02-07T18:09:17.461Z,3.17
2019-02-07T18:11:49.095Z,3.13
2019-02-07T18:14:21.263Z,3.03
2019-02-07T18:16:52.990Z,3.07
2019-02-07T18:19:24.586Z,3.07
2019-02-07T18:21:57.326Z,3.10
2019-02-07T18:24:29.351Z,3.01
2019-02-07T18:27:01.735Z,3.06
2019-02-07T18:29:33.770Z,3.03
2019-02-07T18:32:05.877Z,3.07
2019-02-07T18:34:37.514Z,3.02
2019-02-07T18:37:09.671Z,3.02
2019-02-07T18:39:41.314Z,3.02
2019-02-07T18:42:13.132Z,3.00
2019-02-07T18:44:44.919Z,2.97
2019-02-07T18:47:16.917Z,2.91
2019-02-07T18:49:48.552Z,2.88
2019-02-07T18:52:20.753Z,2.86
2019-02-07T18:54:52.408Z,2.85
2019-02-07T18:57:24.417Z,2.78
2019-02-07T18:59:56.705Z,2.76
2019-02-07T19:02:28.506Z,2.76
2019-02-07T19:05:00.414Z,2.69
2019-02-07T19:07:32.337Z,2.68
2019-02-07T19:10:04.582Z,2.66
2019-02-07T19:12:36.658Z,2.63
2019-02-07T19:15:13.476Z,2.61
2019-02-07T19:17:45.332Z,2.50
2019-02-07T19:20:19.009Z,2.57
2019-02-07T19:22:50.858Z,2.50
2019-02-07T19:25:22.602Z,2.52
2019-02-07T19:27:54.690Z,2.52
2019-02-07T19:30:31.196Z,2.49
2019-02-07T19:33:03.179Z,2.49
2019-02-07T19:35:34.759Z,2.46
2019-02-07T19:38:06.958Z,2.40
2019-02-07T19:40:39.036Z,2.39
2019-02-07T19:43:10.910Z,2.36
2019-02-07T19:45:42.658Z,2.37
2019-02-07T19:48:14.312Z,2.30
2019-02-07T19:50:46.189Z,2.29
2019-02-07T19:53:17.743Z,2.33
